Time;durP1;ratioP1;P1;durP2;ratioP2;P2;SDS_P1;SDS_P2;PMS_P1;PMS_P2;Temp;Humidity;BMP_temperature;BMP_pressure;BME280_temperature;BME280_humidity;BME280_pressure;Samples;Min_cycle;Max_cycle;Signal;HPM_P1;HPM_P2
2022/11/16 00:00:19;;;;;;;;;26.75;24.00;;;;;12.63;76.89;99532.75;5031059;28;45469;-76
2022/11/16 00:02:47;;;;;;;;;26.00;20.50;;;;;12.65;77.55;99542.41;5043061;28;45327;-75
2022/11/16 00:05:13;;;;;;;;;9.75;9.00;;;;;12.59;78.37;99536.22;5051282;28;45387;-75
2022/11/16 00:07:38;;;;;;;;;2.00;2.00;;;;;12.65;77.80;99534.53;5050526;28;45485;-76
2022/11/16 00:10:04;;;;;;;;;12.25;10.25;;;;;12.62;77.60;99508.28;5039310;28;45426;-73
2022/11/16 00:12:30;;;;;;;;;12.75;10.00;;;;;12.67;77.29;99509.22;5035357;28;45679;-75
2022/11/16 00:14:55;;;;;;;;;30.25;23.50;;;;;12.67;77.88;99510.94;5040451;28;46585;-75
2022/11/16 00:17:21;;;;;;;;;23.75;19.50;;;;;12.58;78.06;99498.69;5040582;28;45578;-74
2022/11/16 00:19:46;;;;;;;;;15.75;13.00;;;;;12.62;77.81;99494.34;5038864;28;45494;-75
2022/11/16 00:22:12;;;;;;;;;3.00;3.00;;;;;12.56;78.56;99507.41;5037018;28;45387;-76
2022/11/16 00:24:37;;;;;;;;;1.00;1.00;;;;;12.50;78.74;99508.25;5036604;28;45950;-76
2022/11/16 00:27:03;;;;;;;;;2.00;1.00;;;;;12.45;78.55;99489.84;5036302;28;45706;-72
2022/11/16 00:29:28;;;;;;;;;2.00;1.00;;;;;12.47;78.65;99501.25;5036962;28;45418;-73
2022/11/16 00:31:54;;;;;;;;;1.33;1.00;;;;;12.35;78.89;99482.81;5035095;28;45966;-75
2022/11/16 00:34:21;;;;;;;;;3.33;3.00;;;;;12.39;78.81;99500.31;5035787;28;46073;-76
2022/11/16 00:36:46;;;;;;;;;1.00;1.00;;;;;12.32;78.21;99475.84;5038352;28;45356;-75
2022/11/16 00:39:14;;;;;;;;;3.00;1.00;;;;;12.39;78.39;99492.44;5037258;28;45409;-75
2022/11/16 00:41:40;;;;;;;;;1.00;0.00;;;;;12.39;78.91;99483.72;5037163;28;45439;-76
2022/11/16 00:44:06;;;;;;;;;1.00;0.00;;;;;12.42;78.70;99483.75;5037122;28;45537;-76
2022/11/16 00:46:31;;;;;;;;;1.00;1.00;;;;;12.44;78.46;99482.88;5038157;28;46209;-75
2022/11/16 00:48:57;;;;;;;;;1.00;0.00;;;;;12.44;79.08;99485.50;5038314;28;45692;-74
2022/11/16 00:51:22;;;;;;;;;0.33;0.33;;;;;12.43;78.81;99473.25;5035473;28;45568;-75
2022/11/16 00:53:48;;;;;;;;;0.00;0.00;;;;;12.46;78.49;99481.16;5035609;28;45565;-75
2022/11/16 00:56:13;;;;;;;;;4.75;2.75;;;;;12.38;78.22;99466.28;5039082;28;46203;-75
2022/11/16 00:58:39;;;;;;;;;2.00;1.50;;;;;12.47;78.58;99482.91;5035226;28;45596;-76
2022/11/16 01:01:07;;;;;;;;;1.50;1.50;;;;;12.50;79.07;99495.16;5044070;28;45619;-74
2022/11/16 01:03:33;;;;;;;;;0.67;0.00;;;;;12.45;78.62;99489.84;5020429;28;46514;-75
2022/11/16 01:06:11;;;;;;;;;1.33;1.00;;;;;12.38;78.68;99480.22;5034133;28;45500;-75
2022/11/16 01:08:38;;;;;;;;;0.00;0.00;;;;;12.42;78.45;99497.72;5018746;28;46712;-76
2022/11/16 01:13:50;;;;;;;;;1.00;1.00;;;;;12.33;78.90;99476.69;5034827;28;45568;-75
2022/11/16 01:16:17;;;;;;;;;2.00;1.00;;;;;12.44;78.42;99485.50;5034883;28;45435;-76
2022/11/16 01:18:46;;;;;;;;;0.00;0.00;;;;;12.28;78.56;99467.97;5035178;28;45360;-75
2022/11/16 01:21:11;;;;;;;;;2.00;1.33;;;;;12.33;78.67;99474.09;5036612;28;45453;-76
2022/11/16 01:23:37;;;;;;;;;2.50;2.00;;;;;12.42;78.55;99475.91;5037752;28;46065;-75
2022/11/16 01:26:03;;;;;;;;;3.00;2.25;;;;;12.40;78.43;99469.78;5036744;28;45441;-75
2022/11/16 01:28:29;;;;;;;;;1.00;1.00;;;;;12.44;78.48;99479.41;5036407;28;45343;-75
2022/11/16 01:30:55;;;;;;;;;1.00;0.00;;;;;12.36;78.28;99461.03;5034589;28;45361;-75
2022/11/16 01:33:20;;;;;;;;;0.33;0.33;;;;;12.44;78.14;99480.25;5017671;28;46667;-76
2022/11/16 01:35:46;;;;;;;;;0.00;0.00;;;;;12.39;78.23;99468.88;5045402;28;45418;-75
2022/11/16 01:38:11;;;;;;;;;0.00;0.00;;;;;12.45;78.30;99476.75;5055817;28;45578;-75
2022/11/16 01:40:37;;;;;;;;;4.00;3.75;;;;;12.46;78.29;99467.19;5050612;28;46213;-74
2022/11/16 01:43:10;;;;;;;;;3.00;1.00;;;;;12.40;77.98;99459.28;5057518;28;45511;-75
2022/11/16 01:45:41;;;;;;;;;5.75;5.50;;;;;12.42;77.83;99450.56;5054014;28;45631;-75
2022/11/16 01:48:08;;;;;;;;;4.00;4.00;;;;;12.44;78.12;99437.50;5053594;28;45454;-74
2022/11/16 01:50:34;;;;;;;;;7.25;7.00;;;;;12.46;77.70;99433.13;5051344;28;45558;-73
2022/11/16 01:53:03;;;;;;;;;15.25;13.75;;;;;12.43;78.09;99435.72;5052835;28;46404;-76
2022/11/16 01:55:32;;;;;;;;;2.00;1.67;;;;;12.38;78.58;99425.22;5052810;28;45418;-75
2022/11/16 01:57:59;;;;;;;;;2.00;1.00;;;;;12.45;77.94;99436.59;5058982;28;45431;-75
2022/11/16 02:00:25;;;;;;;;;1.00;0.00;;;;;12.44;78.63;99420.03;5059145;28;45518;-76
2022/11/16 02:02:51;;;;;;;;;1.00;0.00;;;;;12.28;78.26;99421.69;5057427;28;46264;-76
2022/11/16 02:05:21;;;;;;;;;0.00;0.00;;;;;12.24;78.80;99430.41;5053469;28;45438;-75
2022/11/16 02:11:10;;;;;;;;;2.00;0.00;;;;;12.22;78.98;99434.75;5057821;28;45319;-75
2022/11/16 02:14:08;;;;;;;;;0.00;0.00;;;;;12.17;79.08;99430.34;5053797;28;46060;-75
2022/11/16 02:16:56;;;;;;;;;0.00;0.00;;;;;12.07;78.90;99413.72;5057018;28;45550;-76
2022/11/16 02:19:59;;;;;;;;;1.00;0.00;;;;;12.07;79.02;99430.28;5057457;28;45319;-75
2022/11/16 02:22:52;;;;;;;;;1.00;0.67;;;;;12.01;79.16;99427.66;5057003;28;45816;-76
2022/11/16 02:26:00;;;;;;;;;0.00;0.00;;;;;12.01;79.15;99430.25;5058103;28;45470;-75
2022/11/16 02:28:50;;;;;;;;;1.00;0.00;;;;;12.00;79.62;99425.91;5057224;28;45494;-74
2022/11/16 02:31:31;;;;;;;;;0.67;0.67;;;;;12.02;79.52;99415.47;5054673;28;45778;-74
2022/11/16 02:33:59;;;;;;;;;0.00;0.00;;;;;12.02;79.52;99407.59;5053324;28;45882;-75
2022/11/16 02:36:25;;;;;;;;;0.00;0.00;;;;;12.04;79.81;99406.72;5038668;28;46465;-75
2022/11/16 02:38:57;;;;;;;;;2.00;1.00;;;;;12.07;79.17;99401.50;5052230;28;45546;-76
2022/11/16 02:41:27;;;;;;;;;1.75;1.00;;;;;12.09;79.29;99391.03;5056701;28;45493;-75
2022/11/16 02:44:28;;;;;;;;;2.00;1.00;;;;;12.09;79.17;99386.69;5039445;28;45541;-76
2022/11/16 02:47:01;;;;;;;;;4.75;3.50;;;;;12.10;79.17;99393.69;5041000;28;45452;-75
2022/11/16 02:49:30;;;;;;;;;1.00;1.00;;;;;12.10;78.76;99406.75;5049332;28;45327;-75
2022/11/16 02:51:57;;;;;;;;;1.00;1.00;;;;;12.03;78.93;99397.13;5054712;28;45388;-74
2022/11/16 02:54:23;;;;;;;;;1.00;0.67;;;;;11.87;79.16;99385.66;5037642;28;45552;-75
2022/11/16 02:56:58;;;;;;;;;1.00;1.00;;;;;11.93;79.36;99405.78;5055623;28;46315;-76
2022/11/16 02:59:28;;;;;;;;;7.00;6.00;;;;;11.90;79.41;99413.63;5055587;28;45579;-75
2022/11/16 03:02:23;;;;;;;;;9.75;8.00;;;;;11.87;79.12;99408.34;5053284;28;45427;-76
2022/11/16 03:04:55;;;;;;;;;5.50;4.75;;;;;11.80;79.39;99404.81;5040672;28;45472;-76
2022/11/16 03:07:28;;;;;;;;;5.75;5.75;;;;;11.71;79.82;99408.22;5054531;28;45994;-76
2022/11/16 03:09:56;;;;;;;;;6.25;6.00;;;;;11.62;79.97;99392.47;5053735;28;45477;-76
2022/11/16 03:12:27;;;;;;;;;5.00;5.00;;;;;11.62;79.78;99381.13;5055750;28;45498;-76
2022/11/16 03:14:57;;;;;;;;;5.75;5.00;;;;;11.63;79.23;99373.28;5053700;28;45485;-74
2022/11/16 03:17:30;;;;;;;;;2.25;2.00;;;;;11.74;79.63;99382.09;5057229;28;46151;-75
2022/11/16 03:20:08;;;;;;;;;3.00;1.00;;;;;11.77;79.48;99393.44;5039644;28;45757;-75
2022/11/16 03:22:46;;;;;;;;;0.67;0.67;;;;;11.71;79.33;99389.91;5034441;28;45531;-76
2022/11/16 03:25:15;;;;;;;;;2.00;0.33;;;;;11.70;79.39;99396.03;5049945;28;45509;-76
2022/11/16 03:27:49;;;;;;;;;1.00;0.00;;;;;11.69;79.33;99393.38;5056428;28;46142;-76
2022/11/16 03:30:20;;;;;;;;;2.00;1.00;;;;;11.65;79.38;99386.38;5050984;28;45447;-75
2022/11/16 03:32:45;;;;;;;;;2.00;0.00;;;;;11.62;79.82;99402.94;5055278;28;45422;-74
2022/11/16 03:35:31;;;;;;;;;1.00;0.33;;;;;11.57;80.31;99399.41;5033729;28;45531;-77
2022/11/16 03:38:01;;;;;;;;;0.00;0.00;;;;;11.59;80.00;99404.66;5053930;28;45443;-75
2022/11/16 03:40:30;;;;;;;;;1.00;0.00;;;;;11.60;80.22;99399.44;5055763;28;45473;-72
2022/11/16 03:42:59;;;;;;;;;0.67;0.00;;;;;11.52;80.43;99395.91;5054467;28;45327;-74
2022/11/16 03:45:25;;;;;;;;;0.00;0.00;;;;;11.50;80.68;99387.16;5054897;28;45469;-75
2022/11/16 03:47:51;;;;;;;;;0.00;0.00;;;;;11.59;80.27;99400.28;5054271;28;46194;-76
2022/11/16 03:50:16;;;;;;;;;0.33;0.00;;;;;11.52;80.43;99394.16;5050549;28;45465;-75
2022/11/16 03:52:42;;;;;;;;;1.33;0.00;;;;;11.63;80.49;99402.06;5055462;28;45778;-75
2022/11/16 03:55:08;;;;;;;;;0.00;0.00;;;;;11.66;79.93;99399.47;5055936;28;45344;-75
2022/11/16 03:57:33;;;;;;;;;1.00;0.00;;;;;11.64;79.92;99389.84;5046764;28;45460;-75
2022/11/16 03:59:59;;;;;;;;;0.33;0.33;;;;;11.68;79.13;99391.66;5053338;28;45396;-75
2022/11/16 04:02:24;;;;;;;;;0.00;0.00;;;;;11.64;79.05;99393.38;5054132;28;45489;-76
2022/11/16 04:24:20;;;;;;;;;0.67;0.00;;;;;12.04;75.84;99358.75;5052510;28;45394;-76
2022/11/16 04:29:36;;;;;;;;;0.00;0.00;;;;;12.26;73.62;99350.13;5053420;28;45457;-76
2022/11/16 04:37:51;;;;;;;;;0.00;0.00;;;;;12.29;73.74;99347.50;5053092;28;45225;-76
2022/11/16 04:40:22;;;;;;;;;1.00;0.00;;;;;12.33;73.50;99348.38;5052404;28;46061;-74
2022/11/16 04:42:59;;;;;;;;;0.00;0.00;;;;;12.37;73.07;99350.13;5049870;28;45492;-75
2022/11/16 04:48:12;;;;;;;;;0.00;0.00;;;;;12.39;73.48;99340.53;5053389;28;45391;-75
2022/11/16 04:50:38;;;;;;;;;0.33;0.00;;;;;12.40;72.92;99337.06;5053086;28;45416;-75
2022/11/16 04:53:05;;;;;;;;;1.00;0.00;;;;;12.43;72.57;99325.72;5054169;28;45222;-75
2022/11/16 04:55:31;;;;;;;;;0.00;0.00;;;;;12.46;72.31;99331.84;5053370;28;45453;-74
2022/11/16 04:57:56;;;;;;;;;0.00;0.00;;;;;12.45;72.40;99332.69;5044581;28;45594;-74
2022/11/16 05:00:22;;;;;;;;;0.67;0.00;;;;;12.42;72.35;99340.56;5051539;28;46142;-76
2022/11/16 05:02:47;;;;;;;;;5.00;3.25;;;;;12.41;72.16;99336.19;5034458;28;45356;-75
2022/11/16 05:05:13;;;;;;;;;3.00;2.00;;;;;12.34;71.02;99327.44;5051739;28;45427;-76
2022/11/16 05:07:39;;;;;;;;;1.67;1.67;;;;;12.42;71.48;99326.59;5053283;28;45469;-75
2022/11/16 05:10:05;;;;;;;;;1.33;1.00;;;;;12.43;70.46;99336.19;5050118;28;46037;-76
2022/11/16 05:12:32;;;;;;;;;0.33;0.00;;;;;12.50;69.29;99338.84;5052954;28;45492;-76
2022/11/16 05:14:58;;;;;;;;;0.00;0.00;;;;;12.62;69.21;99348.47;5054575;28;45628;-76
2022/11/16 05:17:25;;;;;;;;;4.00;3.00;;;;;12.68;69.50;99345.00;5054241;28;45707;-74
2022/11/16 05:22:35;;;;;;;;;9.50;8.00;;;;;12.80;69.18;99349.41;5051215;28;45558;-75
2022/11/16 05:25:01;;;;;;;;;1.00;1.00;;;;;12.80;68.34;99337.16;5052747;28;45918;-76
2022/11/16 05:27:28;;;;;;;;;2.67;2.67;;;;;12.89;67.88;99342.44;5051460;28;45616;-75
2022/11/16 05:29:54;;;;;;;;;2.00;2.00;;;;;12.91;67.52;99343.31;5051938;28;46088;-76
2022/11/16 05:32:22;;;;;;;;;4.67;3.00;;;;;12.92;67.84;99349.41;5055976;28;45540;-75
2022/11/16 05:34:48;;;;;;;;;1.00;1.00;;;;;12.87;67.29;99331.06;5056964;28;45422;-75
2022/11/16 05:37:14;;;;;;;;;2.00;2.00;;;;;12.94;67.38;99340.66;5056214;28;45480;-76
2022/11/16 05:39:40;;;;;;;;;0.00;0.00;;;;;12.89;66.78;99331.03;5036787;28;45492;-76
2022/11/16 05:42:06;;;;;;;;;1.33;1.33;;;;;12.91;66.30;99332.81;5057600;28;45370;-73
2022/11/16 05:44:33;;;;;;;;;3.00;3.00;;;;;12.90;66.55;99331.06;5057817;28;45354;-73
2022/11/16 05:46:58;;;;;;;;;1.00;1.00;;;;;12.99;66.03;99331.94;5056736;28;45312;-76
2022/11/16 05:49:24;;;;;;;;;2.33;2.00;;;;;13.04;66.13;99325.81;5052200;28;45507;-75
2022/11/16 05:51:50;;;;;;;;;2.00;1.33;;;;;13.14;65.55;99334.56;5055924;28;45457;-75
2022/11/16 05:54:21;;;;;;;;;1.00;1.00;;;;;13.17;65.63;99339.81;5054392;28;45486;-76
2022/11/16 05:56:48;;;;;;;;;0.00;0.00;;;;;13.17;64.90;99325.81;5054605;28;46081;-74
2022/11/16 05:59:15;;;;;;;;;0.00;0.00;;;;;13.27;64.62;99328.44;5045140;28;45515;-75
2022/11/16 06:01:41;;;;;;;;;0.00;0.00;;;;;13.31;64.54;99329.38;5053552;28;45486;-75
2022/11/16 06:04:07;;;;;;;;;0.00;0.00;;;;;13.32;64.50;99331.97;5056221;28;45597;-73
2022/11/16 06:06:33;;;;;;;;;0.33;0.33;;;;;13.33;64.20;99325.00;5053718;28;45517;-75
2022/11/16 06:08:59;;;;;;;;;0.67;0.67;;;;;13.32;64.61;99310.13;5054745;28;45451;-75
2022/11/16 06:11:25;;;;;;;;;0.00;0.00;;;;;13.32;64.27;99308.34;5056573;28;45485;-75
2022/11/16 06:13:51;;;;;;;;;2.00;0.00;;;;;13.36;63.93;99305.75;5056610;28;45245;-73
2022/11/16 06:16:16;;;;;;;;;1.00;0.00;;;;;13.28;64.33;99300.47;5039513;28;45562;-73
2022/11/16 06:18:45;;;;;;;;;0.00;0.00;;;;;13.33;64.54;99310.13;5054984;28;45438;-74
2022/11/16 06:21:12;;;;;;;;;1.00;1.00;;;;;13.29;64.48;99297.88;5051517;28;45581;-75
2022/11/16 06:23:38;;;;;;;;;0.00;0.00;;;;;13.30;63.87;99297.00;5055452;28;45400;-73
2022/11/16 06:26:04;;;;;;;;;0.00;0.00;;;;;13.34;62.71;99295.25;5057026;28;45465;-75
2022/11/16 06:28:30;;;;;;;;;1.00;0.00;;;;;13.35;62.65;99299.63;5042218;28;46316;-75
2022/11/16 06:30:55;;;;;;;;;1.00;1.00;;;;;13.29;62.46;99291.72;5039109;28;45469;-75
2022/11/16 06:33:21;;;;;;;;;1.00;0.00;;;;;13.43;62.24;99304.84;5032647;28;45266;-74
2022/11/16 06:35:47;;;;;;;;;1.00;1.00;;;;;13.50;61.77;99309.22;5039673;28;45414;-75
2022/11/16 06:38:17;;;;;;;;;0.00;0.00;;;;;13.60;61.44;99304.81;5054309;28;45967;-75
2022/11/16 06:40:54;;;;;;;;;0.67;0.00;;;;;13.61;61.28;99294.34;5021029;28;45351;-75
2022/11/16 06:43:20;;;;;;;;;1.00;0.00;;;;;13.55;61.46;99289.09;5038358;28;45514;-76
2022/11/16 06:45:51;;;;;;;;;0.00;0.00;;;;;13.54;61.72;99297.84;5053387;28;45488;-78
2022/11/16 06:48:18;;;;;;;;;1.00;0.00;;;;;13.53;61.53;99283.84;5038706;28;46052;-75
2022/11/16 06:50:45;;;;;;;;;0.00;0.00;;;;;13.55;61.97;99306.56;5042553;28;45244;-75
2022/11/16 06:53:11;;;;;;;;;1.00;0.00;;;;;13.48;62.01;99297.84;5047788;28;45399;-74
2022/11/16 06:55:36;;;;;;;;;2.00;2.00;;;;;13.38;62.45;99304.00;5039299;28;45423;-75
2022/11/16 06:58:02;;;;;;;;;8.50;7.25;;;;;13.30;62.93;99307.47;5056275;28;45482;-75
2022/11/16 07:00:27;;;;;;;;;5.00;4.67;;;;;13.23;63.61;99315.31;5053873;28;45233;-74
2022/11/16 07:02:53;;;;;;;;;1.00;1.00;;;;;13.13;63.32;99296.13;5055970;28;45451;-75
2022/11/16 07:05:19;;;;;;;;;5.00;4.00;;;;;13.08;63.64;99295.25;5055034;28;45366;-76
2022/11/16 07:07:45;;;;;;;;;1.00;1.00;;;;;13.11;63.23;99301.38;5054997;28;45463;-78
2022/11/16 07:10:11;;;;;;;;;2.00;2.00;;;;;13.11;63.16;99297.84;5054604;28;45742;-72
2022/11/16 07:12:37;;;;;;;;;2.00;2.00;;;;;13.14;63.28;99295.22;5057582;28;45532;-76
2022/11/16 07:15:03;;;;;;;;;1.33;1.00;;;;;13.06;63.27;99276.00;5056287;28;45843;-76
2022/11/16 07:17:28;;;;;;;;;1.00;1.00;;;;;13.13;63.22;99280.41;5038763;28;47796;-77
2022/11/16 07:19:54;;;;;;;;;2.00;2.00;;;;;13.17;62.79;99282.13;5045566;28;45681;-76
2022/11/16 07:22:19;;;;;;;;;2.00;2.00;;;;;13.22;62.63;99277.75;5052820;28;45550;-75
2022/11/16 07:24:45;;;;;;;;;0.00;0.00;;;;;13.21;62.45;99273.38;5054563;28;45567;-77
2022/11/16 07:27:10;;;;;;;;;0.00;0.00;;;;;13.32;62.33;99284.75;5056536;28;45904;-76
2022/11/16 07:29:36;;;;;;;;;1.00;0.00;;;;;13.38;62.03;99304.00;5054025;28;45500;-77
2022/11/16 07:32:01;;;;;;;;;1.00;1.00;;;;;13.41;61.82;99299.63;5054071;28;45633;-77
2022/11/16 07:34:27;;;;;;;;;1.00;1.00;;;;;13.33;61.69;99286.50;5050312;28;45553;-77
2022/11/16 07:36:52;;;;;;;;;0.67;0.67;;;;;13.43;61.83;99295.25;5054725;28;46076;-77
2022/11/16 07:39:18;;;;;;;;;2.00;2.00;;;;;13.38;61.50;99280.38;5053945;28;45276;-76
2022/11/16 07:41:44;;;;;;;;;5.00;5.00;;;;;13.36;62.09;99279.50;5054849;28;45446;-76
2022/11/16 07:44:09;;;;;;;;;5.00;5.00;;;;;13.44;61.71;99296.09;5056536;28;45477;-76
2022/11/16 07:46:35;;;;;;;;;4.00;3.00;;;;;13.43;61.40;99292.63;5056075;28;46192;-76
2022/11/16 07:49:01;;;;;;;;;0.67;0.00;;;;;13.46;61.39;99296.97;5052260;28;45445;-77
2022/11/16 07:51:27;;;;;;;;;2.00;1.33;;;;;13.56;61.22;99303.94;5054798;28;45355;-77
2022/11/16 07:53:54;;;;;;;;;3.00;2.67;;;;;13.60;60.77;99310.06;5051316;28;45757;-77
2022/11/16 07:56:20;;;;;;;;;1.33;1.33;;;;;13.59;60.43;99292.56;5034359;28;46362;-74
2022/11/16 07:58:46;;;;;;;;;0.00;0.00;;;;;13.68;60.43;99300.44;5054501;28;45477;-76
2022/11/16 08:01:14;;;;;;;;;2.00;2.00;;;;;13.77;60.14;99307.38;5053222;28;45577;-77
2022/11/16 08:03:41;;;;;;;;;1.00;0.00;;;;;13.85;60.32;99317.00;5050820;28;45448;-77
2022/11/16 08:06:12;;;;;;;;;2.00;1.00;;;;;13.96;59.45;99314.34;5040313;28;45447;-77
2022/11/16 08:08:38;;;;;;;;;1.00;0.67;;;;;14.02;59.67;99321.31;5035919;28;45393;-77
2022/11/16 08:11:06;;;;;;;;;1.00;1.00;;;;;14.08;59.53;99329.16;5048058;28;45521;-78
2022/11/16 08:13:33;;;;;;;;;0.67;0.67;;;;;14.16;59.18;99329.16;5042305;28;45412;-77
2022/11/16 08:16:14;;;;;;;;;5.00;4.67;;;;;14.19;59.41;99329.16;5043853;28;46218;-72
2022/11/16 08:18:40;;;;;;;;;2.00;2.00;;;;;14.18;60.05;99319.50;5057516;28;45486;-70
2022/11/16 08:21:09;;;;;;;;;2.00;1.00;;;;;14.27;59.24;99327.34;5042556;28;45564;-73
2022/11/16 08:23:34;;;;;;;;;3.00;3.00;;;;;14.34;59.41;99329.06;5036115;28;45439;-74
2022/11/16 08:26:02;;;;;;;;;2.33;2.33;;;;;14.40;58.96;99333.41;5043348;28;46271;-73
2022/11/16 08:28:29;;;;;;;;;0.33;0.33;;;;;14.50;59.46;99335.09;5042981;28;45561;-72
2022/11/16 08:30:55;;;;;;;;;1.00;0.67;;;;;14.61;59.10;99335.09;5043303;28;45487;-73
2022/11/16 08:33:23;;;;;;;;;1.00;1.00;;;;;14.71;58.38;99324.50;5038733;28;45541;-70
2022/11/16 08:35:49;;;;;;;;;0.00;0.00;;;;;15.51;57.47;99339.66;5036835;28;45595;-72
2022/11/16 08:38:15;;;;;;;;;0.00;0.00;;;;;16.88;54.04;99316.94;5036952;28;45541;-72
2022/11/16 08:40:40;;;;;;;;;4.00;2.67;;;;;18.83;51.16;99330.00;5037166;28;45407;-73
2022/11/16 08:43:09;;;;;;;;;0.00;0.00;;;;;20.27;46.61;99312.13;5046866;28;45462;-74
2022/11/16 08:45:36;;;;;;;;;0.33;0.00;;;;;21.45;44.05;99326.16;5051631;27;45553;-76
2022/11/16 08:48:01;;;;;;;;;1.00;0.00;;;;;22.21;43.14;99324.34;5056591;28;45548;-75
2022/11/16 08:50:27;;;;;;;;;1.00;1.00;;;;;22.89;40.55;99325.28;5048789;28;45383;-75
2022/11/16 08:52:52;;;;;;;;;1.00;0.33;;;;;23.18;40.35;99324.13;5036652;28;45517;-75
2022/11/16 08:55:18;;;;;;;;;1.00;0.00;;;;;23.47;40.09;99330.03;5036002;28;45960;-74
2022/11/16 08:57:44;;;;;;;;;0.67;0.67;;;;;23.67;38.75;99328.31;5046039;28;45416;-73
2022/11/16 09:00:11;;;;;;;;;1.33;1.33;;;;;23.95;37.52;99317.34;5042813;28;45384;-73
2022/11/16 09:02:37;;;;;;;;;2.00;2.00;;;;;23.93;37.54;99321.88;5020484;28;45523;-73
2022/11/16 09:05:04;;;;;;;;;4.00;4.00;;;;;23.89;37.81;99310.47;5036413;28;46265;-76
2022/11/16 09:07:29;;;;;;;;;4.33;3.67;;;;;24.13;38.28;99318.31;5036415;28;45545;-76
2022/11/16 09:09:55;;;;;;;;;16.00;14.67;;;;;24.39;37.69;99312.66;5049921;28;45442;-78
2022/11/16 09:12:20;;;;;;;;;31.00;29.25;;;;;24.53;37.40;99316.47;5038713;28;45470;-76
2022/11/16 09:14:46;;;;;;;;;4.00;4.00;;;;;24.58;37.45;99322.50;5025284;28;46368;-77
2022/11/16 09:17:11;;;;;;;;;2.00;1.00;;;;;24.68;37.38;99331.78;5051906;28;45562;-78
2022/11/16 09:19:37;;;;;;;;;0.67;0.00;;;;;24.70;36.77;99327.25;5036190;28;45453;-76
2022/11/16 09:22:03;;;;;;;;;3.00;3.00;;;;;24.70;36.96;99323.72;5038390;28;45423;-76
2022/11/16 09:24:28;;;;;;;;;2.00;2.00;;;;;24.54;36.77;99319.09;5028185;28;45531;-81
2022/11/16 09:26:56;;;;;;;;;2.33;2.33;;;;;24.59;36.67;99330.44;5061230;28;45463;-80
2022/11/16 09:29:22;;;;;;;;;1.00;1.00;;;;;24.67;36.54;99330.06;5046488;28;46057;-80
2022/11/16 09:31:47;;;;;;;;;1.67;1.67;;;;;24.73;37.14;99326.22;5054826;28;45465;-80
2022/11/16 09:34:13;;;;;;;;;2.00;1.00;;;;;24.68;36.22;99322.91;5051573;28;45539;-79
2022/11/16 09:36:38;;;;;;;;;1.33;1.33;;;;;24.66;37.54;99323.00;5035518;28;45476;-80
2022/11/16 09:39:04;;;;;;;;;1.00;1.00;;;;;24.75;37.22;99313.66;5036235;28;45468;-80
2022/11/16 09:41:40;;;;;;;;;0.00;0.00;;;;;24.77;36.81;99314.44;5036146;28;45499;-81
2022/11/16 09:44:11;;;;;;;;;0.33;0.33;;;;;24.70;37.02;99321.91;5028107;28;46957;-80
2022/11/16 09:46:40;;;;;;;;;0.00;0.00;;;;;24.51;37.53;99311.25;5037374;28;45684;-78
2022/11/16 09:49:27;;;;;;;;;2.00;2.00;;;;;24.46;37.92;99310.53;5049092;28;45609;-82
2022/11/16 09:51:59;;;;;;;;;1.67;0.33;;;;;24.39;36.38;99299.31;5018309;28;45683;-79
2022/11/16 09:54:38;;;;;;;;;0.00;0.00;;;;;24.11;35.76;99293.50;5035458;28;45345;-78
2022/11/16 09:57:09;;;;;;;;;0.00;0.00;;;;;24.15;37.34;99281.75;5051340;28;45373;-75
2022/11/16 09:59:49;;;;;;;;;1.67;1.67;;;;;24.10;37.65;99278.44;5036183;28;45437;-80
2022/11/16 10:02:22;;;;;;;;;2.00;2.00;;;;;24.00;37.11;99270.84;5030502;28;45594;-78
2022/11/16 10:04:54;;;;;;;;;0.00;0.00;;;;;23.81;37.51;99272.59;5035433;28;45515;-78
2022/11/16 10:07:26;;;;;;;;;1.00;0.33;;;;;23.75;38.15;99270.19;5050212;28;45545;-81
2022/11/16 10:09:52;;;;;;;;;1.00;1.00;;;;;23.71;38.33;99256.13;5062964;28;45319;-75
2022/11/16 10:12:31;;;;;;;;;0.00;0.00;;;;;23.53;38.42;99249.81;5036022;28;45494;-79
2022/11/16 10:15:19;;;;;;;;;0.00;0.00;;;;;23.42;37.73;99257.41;5045324;28;45486;-74
2022/11/16 10:18:16;;;;;;;;;0.00;0.00;;;;;23.31;37.39;99259.69;5039267;28;45404;-74
2022/11/16 10:21:08;;;;;;;;;2.00;2.00;;;;;22.92;38.08;99253.28;5054144;28;45280;-75
2022/11/16 10:23:34;;;;;;;;;0.67;0.67;;;;;22.76;38.97;99250.38;5037026;28;45519;-76
2022/11/16 10:26:28;;;;;;;;;0.33;0.33;;;;;22.82;39.19;99247.47;5053305;28;46859;-77
2022/11/16 10:29:32;;;;;;;;;0.00;0.00;;;;;22.89;39.21;99237.41;5039348;28;45670;-80
2022/11/16 10:32:27;;;;;;;;;3.00;2.00;;;;;22.67;38.71;99217.94;5038983;28;45539;-74
2022/11/16 10:35:04;;;;;;;;;0.00;0.00;;;;;22.61;38.88;99225.22;5039143;28;45330;-75
2022/11/16 10:37:35;;;;;;;;;0.00;0.00;;;;;22.56;38.87;99235.22;5041352;28;45229;-77
2022/11/16 10:40:15;;;;;;;;;1.00;0.00;;;;;22.42;39.19;99238.44;5036246;28;45388;-81
2022/11/16 10:42:40;;;;;;;;;0.00;0.00;;;;;22.31;39.70;99226.47;5040224;28;45482;-81
2022/11/16 10:45:09;;;;;;;;;1.00;1.00;;;;;22.20;39.12;99232.16;5061058;28;45692;-78
2022/11/16 10:48:11;;;;;;;;;0.00;0.00;;;;;22.21;40.43;99229.44;5057476;28;45557;-75
2022/11/16 10:50:47;;;;;;;;;0.00;0.00;;;;;22.30;39.99;99232.69;5058053;28;45788;-78
2022/11/16 10:53:24;;;;;;;;;0.00;0.00;;;;;22.47;39.28;99235.56;5039084;28;45459;-78
2022/11/16 10:56:12;;;;;;;;;0.00;0.00;;;;;22.52;38.99;99236.28;5038944;28;45491;-78
2022/11/16 10:58:58;;;;;;;;;0.00;0.00;;;;;22.48;39.41;99226.66;5022195;28;46428;-78
2022/11/16 11:01:31;;;;;;;;;1.00;0.00;;;;;22.39;39.31;99221.72;5034324;28;45912;-76
2022/11/16 11:04:16;;;;;;;;;1.00;1.00;;;;;22.03;39.97;99215.06;5051968;28;45494;-79
2022/11/16 11:06:42;;;;;;;;;0.00;0.00;;;;;21.93;40.41;99216.34;5055891;28;45510;-75
2022/11/16 11:09:26;;;;;;;;;1.00;1.00;;;;;22.12;39.80;99205.00;5057578;28;45957;-75
2022/11/16 11:15:25;;;;;;;;;0.33;0.00;;;;;21.76;40.41;99195.69;5063532;28;45458;-77
2022/11/16 11:18:09;;;;;;;;;1.00;1.00;;;;;21.46;40.35;99189.72;5065796;28;45617;-79
2022/11/16 11:20:35;;;;;;;;;1.00;1.00;;;;;21.18;41.42;99158.81;5042443;28;46869;-77
2022/11/16 11:23:13;;;;;;;;;5.00;4.00;;;;;21.09;41.84;99164.47;5037932;28;45518;-74
2022/11/16 11:26:01;;;;;;;;;1.00;1.00;;;;;21.23;41.31;99162.19;5036700;28;45557;-77
2022/11/16 11:28:33;;;;;;;;;0.00;0.00;;;;;21.28;41.61;99151.38;5060506;28;45423;-76
2022/11/16 11:31:02;;;;;;;;;0.67;0.67;;;;;21.27;42.33;99157.63;5044599;28;45498;-73
2022/11/16 11:33:33;;;;;;;;;0.00;0.00;;;;;21.24;42.65;99129.38;5064070;28;45557;-77
2022/11/16 11:36:17;;;;;;;;;0.00;0.00;;;;;21.49;41.27;99132.94;5065360;28;45235;-75
2022/11/16 11:38:55;;;;;;;;;0.00;0.00;;;;;21.34;41.51;99132.56;5066684;28;45414;-74
2022/11/16 11:41:20;;;;;;;;;1.00;1.00;;;;;21.23;41.78;99122.34;5065932;28;45489;-77
2022/11/16 11:44:02;;;;;;;;;2.00;2.00;;;;;21.29;42.31;99117.72;5067195;28;45572;-78
2022/11/16 11:46:34;;;;;;;;;0.00;0.00;;;;;21.30;42.80;99130.94;5067757;28;45619;-79
2022/11/16 11:49:15;;;;;;;;;1.67;1.67;;;;;21.16;42.61;99119.97;5065716;28;45330;-76
2022/11/16 11:51:45;;;;;;;;;0.33;0.00;;;;;21.16;42.61;99120.81;5065559;28;45512;-79
2022/11/16 11:54:34;;;;;;;;;0.33;0.00;;;;;20.94;42.74;99110.13;5066691;28;45458;-78
2022/11/16 11:57:02;;;;;;;;;0.00;0.00;;;;;20.83;43.36;99113.16;5059213;28;45592;-77
2022/11/16 11:59:29;;;;;;;;;1.00;1.00;;;;;20.80;42.96;99109.75;5045628;28;45398;-77
2022/11/16 12:02:05;;;;;;;;;0.00;0.00;;;;;20.82;43.57;99114.06;5047257;28;45567;-77
2022/11/16 12:04:36;;;;;;;;;0.67;0.00;;;;;20.80;43.20;99097.31;5041827;28;45289;-78
2022/11/16 12:07:15;;;;;;;;;1.00;0.00;;;;;20.72;43.56;99094.06;5052285;28;45462;-76
2022/11/16 12:09:51;;;;;;;;;0.00;0.00;;;;;20.74;44.11;99086.06;5064836;28;45489;-77
2022/11/16 12:12:37;;;;;;;;;0.00;0.00;;;;;20.55;43.61;99064.56;5044719;28;45430;-71
2022/11/16 12:15:40;;;;;;;;;0.00;0.00;;;;;20.62;43.91;99061.69;5061096;28;45398;-76
2022/11/16 12:18:20;;;;;;;;;0.00;0.00;;;;;20.55;44.15;99069.88;5061982;28;45425;-74
2022/11/16 12:21:39;;;;;;;;;1.00;1.00;;;;;20.56;44.88;99068.97;5037235;28;45572;-76
2022/11/16 12:24:34;;;;;;;;;0.00;0.00;;;;;20.58;43.60;99059.16;5046055;28;46231;-75
2022/11/16 12:27:38;;;;;;;;;0.00;0.00;;;;;20.66;44.33;99055.34;5063769;28;45514;-76
2022/11/16 12:30:16;;;;;;;;;0.00;0.00;;;;;20.91;43.67;99035.91;5063016;28;45541;-74